Las Vegas, Nevada
Traffic Map
Current Weather Conditions
Las Vegas, Nevada
Clear
Clear
29°
Feels Like: 29°
Wind Chill: 29° Ceiling: Unl
Heat Index: 29° Visibility: 10mi
Dew Point: Wind: 5mph
Humidity: 20% Direction: 240° (WSW)
Pressure: 29.92in Gusts: 0mph
Raw Report DataKLAS 170756Z 24004KT 10SM CLR 29/04 A2992 RMK AO2 SLP101 T02940039 403670244
Traffic Incident Summary
Active as of:
Severity:
Category:
InformationThere was an issue retrieving the traffic information for this location. Please try a different location or try again shortly.
Advertisements